Liechtenstein Hospital Helipad

LI-0001 · Vaduz, 列支敦士登

使用的TAF站离机场有39 km的距离
2024年7月20日 14:002024年7月20日 23:00有效
时间
星期六
14:00
星期六
15:00
星期六
16:00
星期六
17:00
星期六
18:00
星期六
19:00
星期六
20:00
星期六
21:00
星期六
22:00
代码
VFR
VFR
VFR
VFR
VFR
VFR
VFR
VFR
VFR
天气
几云
几云
几云
几云
几云
几云
几云
几云
几云
能见度
10 km+
10 km+
10 km+
10 km+
10 km+
10 km+
10 km+
10 km+
10 km+
天花板
-
-
-
-
-
-
-
-
-
Var
Var
Var
Var
Var
Var
Var
Var
Var
Var
Var
Var
Var
Var
Var
Var
Var
Var
速度
2 kt
2 kt
2 kt
2 kt
2 kt
2 kt
2 kt
2 kt
2 kt
阵风
温度/星期日
21:10

原版的

TAF LSZR 201125Z 2012/2021 VRB02KT 9999 FEW055
BECMG 2015/2018 CAVOK

TAF Liechtenstein Hospital Helipad

Liechtenstein Hospital Helipad是,列支敦士登中的直升机场。 该机场位于纬度47,13477和经度9,52275。 这个机场没有ICAO代码,我们使用LI-0001作为参考。 机场在Switzerland FIR中。

该航空气象观测是针对St Gallen Altenrhein Airport在2024年7月20日 13:25, 当地时间进行的。 从2024年7月20日 14:00到2024年7月20日 23:00, 当地时间有效.

预报

  • 在星期六 14:00和23:00之间

    • 风: 可变方向的风很小或没有。
    • 能见度: 10 km 或者更多
    • 乌云: 几云在5.500 ft的高度.
  • 介于星期六 17:00和20:00之间

    • CAVOK: 天气为CAVOK。这意味着在5.000 ft或MSA(最低安全高度)以下(以较高者为准)以下没有云。这也意味着没有观测到积雨云或高耸的积云,可见度为10 km 或者更多或更高。此外,不会有雾,降雨或其他重要天气。

白天

今天,太阳从05:47升起,在21:09降落。 这适用于Liechtenstein Hospital Helipad,世界夏令时可能有所不同。 当地时间与世界标准时间之间的时差为+2 小时。 夏令时目前正在进行中。

报告变更